createdAt,value
2022-08-17T00:00:34.398Z,22.06
2022-08-17T00:03:10.010Z,22.09
2022-08-17T00:05:42.639Z,22.06
2022-08-17T00:08:10.573Z,22.01
2022-08-17T00:10:39.381Z,21.97
2022-08-17T00:13:11.120Z,21.95
2022-08-17T00:15:39.690Z,21.94
2022-08-17T00:19:01.628Z,21.93
2022-08-17T00:20:58.448Z,21.86
2022-08-17T00:23:27.492Z,21.96
2022-08-17T00:25:55.770Z,21.95
2022-08-17T00:28:23.655Z,21.99
2022-08-17T00:30:53.832Z,21.89
2022-08-17T00:33:25.226Z,21.88
2022-08-17T00:35:54.112Z,21.93
2022-08-17T00:38:24.145Z,21.86
2022-08-17T00:40:55.856Z,21.85
2022-08-17T00:43:35.068Z,21.84
2022-08-17T00:46:06.324Z,21.68
2022-08-17T00:48:34.237Z,21.70
2022-08-17T00:51:08.186Z,21.57
2022-08-17T00:53:41.824Z,21.56
2022-08-17T00:56:15.580Z,21.53
2022-08-17T00:58:43.827Z,21.59
2022-08-17T01:01:13.131Z,21.62
2022-08-17T01:03:51.449Z,21.66
2022-08-17T01:06:19.534Z,21.57
2022-08-17T01:08:49.922Z,21.60
2022-08-17T01:11:26.353Z,21.57
2022-08-17T01:13:54.626Z,21.59
2022-08-17T01:16:25.913Z,21.54
2022-08-17T01:18:56.527Z,21.48
2022-08-17T01:21:32.834Z,21.51
2022-08-17T01:24:02.744Z,21.50
2022-08-17T01:26:33.726Z,21.37
2022-08-17T01:29:02.621Z,21.41
2022-08-17T01:31:35.726Z,21.29
2022-08-17T01:34:07.825Z,21.33
2022-08-17T01:36:36.096Z,21.36
2022-08-17T01:39:07.666Z,21.20
2022-08-17T01:41:37.974Z,21.21
2022-08-17T01:44:08.245Z,21.20
2022-08-17T01:46:38.267Z,21.24
2022-08-17T01:49:08.411Z,21.22
2022-08-17T01:51:36.481Z,21.18
2022-08-17T01:54:08.054Z,21.17
2022-08-17T01:56:39.800Z,21.16
2022-08-17T01:59:09.197Z,21.02
2022-08-17T02:01:38.016Z,21.04
2022-08-17T02:04:08.312Z,21.03
2022-08-17T02:06:45.022Z,20.92
2022-08-17T02:09:25.892Z,20.92
2022-08-17T02:11:54.812Z,20.78
2022-08-17T02:14:24.729Z,20.77
2022-08-17T02:16:53.147Z,20.76
2022-08-17T02:19:21.792Z,20.74
2022-08-17T02:21:52.844Z,20.63
2022-08-17T02:25:00.454Z,20.57
2022-08-17T02:27:13.700Z,20.46
2022-08-17T02:29:41.667Z,20.48
2022-08-17T02:32:25.381Z,20.52
2022-08-17T02:34:56.905Z,20.55
2022-08-17T02:37:25.483Z,20.48
2022-08-17T02:39:56.811Z,20.47
2022-08-17T02:42:29.123Z,20.41
2022-08-17T02:44:56.946Z,20.35
2022-08-17T02:47:25.156Z,20.44
2022-08-17T02:49:55.417Z,20.31
2022-08-17T02:52:42.533Z,20.42
2022-08-17T02:55:15.952Z,20.33
2022-08-17T02:57:44.310Z,20.23
2022-08-17T03:00:15.094Z,20.21
2022-08-17T03:02:45.054Z,20.25
2022-08-17T03:05:14.742Z,20.21
2022-08-17T03:07:43.057Z,20.19
2022-08-17T03:10:13.117Z,20.16
2022-08-17T03:12:43.323Z,20.13
2022-08-17T03:15:13.765Z,20.13
2022-08-17T03:17:41.809Z,20.01
2022-08-17T03:20:10.248Z,19.96
2022-08-17T03:22:40.404Z,20.00
2022-08-17T03:25:10.607Z,20.03
2022-08-17T03:27:42.066Z,19.97
2022-08-17T03:30:14.099Z,19.97
2022-08-17T03:32:45.139Z,19.96
2022-08-17T03:35:15.835Z,19.98
2022-08-17T03:37:47.013Z,19.94
2022-08-17T03:40:57.810Z,19.97
2022-08-17T03:43:18.465Z,20.00
2022-08-17T03:46:03.730Z,19.92
2022-08-17T03:48:50.973Z,19.97
2022-08-17T03:51:38.906Z,19.92
2022-08-17T03:54:24.809Z,19.83
2022-08-17T03:57:01.473Z,19.91
2022-08-17T03:59:31.112Z,19.87
2022-08-17T04:02:03.728Z,19.89
2022-08-17T04:04:31.541Z,19.92
2022-08-17T04:06:59.545Z,19.92
2022-08-17T04:09:27.564Z,19.93
2022-08-17T04:11:55.350Z,19.90
2022-08-17T04:14:25.300Z,19.95
2022-08-17T04:16:54.474Z,19.99
2022-08-17T04:19:22.296Z,20.00
2022-08-17T04:21:50.150Z,19.91
2022-08-17T04:24:17.990Z,19.98
2022-08-17T04:26:52.547Z,19.98
2022-08-17T04:29:21.537Z,20.02
2022-08-17T04:31:49.757Z,20.01
2022-08-17T04:34:19.670Z,20.08
2022-08-17T04:36:50.120Z,20.03
2022-08-17T04:39:18.320Z,20.07
2022-08-17T04:42:03.709Z,20.06
2022-08-17T04:44:37.765Z,20.10
2022-08-17T04:47:07.153Z,20.11
2022-08-17T04:49:39.813Z,20.18
2022-08-17T04:52:08.146Z,20.21
2022-08-17T04:54:55.988Z,20.20
2022-08-17T04:57:23.788Z,20.20
2022-08-17T04:59:51.641Z,20.26
2022-08-17T05:02:19.461Z,20.27
2022-08-17T05:04:48.628Z,20.28
2022-08-17T05:07:21.100Z,20.29
2022-08-17T05:09:50.957Z,20.30
2022-08-17T05:12:18.816Z,20.34
2022-08-17T05:14:46.623Z,20.41
2022-08-17T05:17:14.596Z,20.41
2022-08-17T05:19:42.419Z,20.41
2022-08-17T05:22:11.601Z,20.41
2022-08-17T05:24:43.731Z,20.50
2022-08-17T05:27:22.753Z,20.55
2022-08-17T05:29:51.493Z,20.59
2022-08-17T05:32:38.001Z,20.67
2022-08-17T05:35:08.537Z,20.76
2022-08-17T05:37:39.131Z,20.77
2022-08-17T05:40:08.651Z,20.83
2022-08-17T05:42:36.572Z,20.84
2022-08-17T05:45:04.988Z,20.90
2022-08-17T05:47:32.832Z,20.97
2022-08-17T05:50:02.501Z,20.92
2022-08-17T05:52:47.975Z,21.03
2022-08-17T05:55:24.192Z,21.05
2022-08-17T05:58:08.437Z,21.06
2022-08-17T06:00:44.225Z,21.11
2022-08-17T06:03:28.090Z,21.10
2022-08-17T06:06:08.760Z,21.21
2022-08-17T06:08:51.668Z,21.41
2022-08-17T06:11:27.598Z,21.33
2022-08-17T06:14:10.860Z,21.37
2022-08-17T06:16:42.457Z,21.40
2022-08-17T06:19:17.054Z,21.41
2022-08-17T06:21:48.732Z,21.44
2022-08-17T06:24:29.536Z,21.40
2022-08-17T06:27:07.223Z,21.52
2022-08-17T06:29:48.930Z,21.75
2022-08-17T06:32:17.242Z,21.74
2022-08-17T06:34:47.060Z,21.85
2022-08-17T06:37:28.943Z,22.15
2022-08-17T06:40:13.182Z,22.23
2022-08-17T06:43:02.173Z,22.57
2022-08-17T06:45:38.905Z,22.67
2022-08-17T06:48:13.901Z,22.78
2022-08-17T06:50:48.073Z,22.69
2022-08-17T06:53:24.383Z,23.04
2022-08-17T06:55:59.772Z,23.08
2022-08-17T06:58:31.229Z,23.32
2022-08-17T07:01:05.179Z,22.92
2022-08-17T07:03:37.970Z,23.08
2022-08-17T07:06:13.597Z,23.43
2022-08-17T07:08:50.484Z,23.69
2022-08-17T07:11:27.146Z,23.94
2022-08-17T07:14:04.339Z,24.01
2022-08-17T07:16:37.009Z,23.91
2022-08-17T07:19:07.295Z,24.11
2022-08-17T07:21:47.705Z,24.54
2022-08-17T07:24:37.230Z,24.56
2022-08-17T07:27:15.923Z,24.49
2022-08-17T07:29:49.435Z,24.86
2022-08-17T07:32:21.157Z,25.06
2022-08-17T07:35:15.228Z,25.07
2022-08-17T07:37:45.677Z,25.00
2022-08-17T07:40:29.598Z,25.14
2022-08-17T07:43:23.031Z,25.21
2022-08-17T07:46:22.201Z,25.45
2022-08-17T07:48:52.721Z,25.71
2022-08-17T07:51:26.096Z,25.51
2022-08-17T07:54:09.147Z,25.58
2022-08-17T07:56:45.531Z,25.71
2022-08-17T07:59:17.994Z,26.03
2022-08-17T08:02:06.116Z,25.64
2022-08-17T08:07:29.463Z,25.53
2022-08-17T08:10:10.611Z,25.46
2022-08-17T08:12:41.165Z,25.38
2022-08-17T08:15:17.669Z,25.13
2022-08-17T08:17:55.482Z,24.86
2022-08-17T08:20:51.284Z,24.84
2022-08-17T08:23:39.492Z,24.71
2022-08-17T08:26:20.279Z,24.62
2022-08-17T08:29:00.432Z,24.53
2022-08-17T08:31:42.503Z,24.41
2022-08-17T08:34:58.843Z,24.47
2022-08-17T08:37:32.252Z,24.28
2022-08-17T08:40:08.655Z,24.22
2022-08-17T08:42:43.155Z,24.30
2022-08-17T08:45:16.865Z,24.20
2022-08-17T08:48:05.884Z,24.15
2022-08-17T08:50:42.894Z,24.07
2022-08-17T08:53:21.841Z,23.91
2022-08-17T08:55:55.875Z,24.05
2022-08-17T08:58:42.079Z,24.07
2022-08-17T09:01:18.032Z,23.91
2022-08-17T09:04:21.531Z,23.91
2022-08-17T09:07:02.248Z,23.91
2022-08-17T09:09:43.673Z,23.88
2022-08-17T09:12:22.554Z,23.84
2022-08-17T09:14:57.839Z,23.79
2022-08-17T09:17:34.965Z,23.83
2022-08-17T09:20:11.913Z,23.74
2022-08-17T09:22:59.384Z,23.60
2022-08-17T09:25:32.771Z,23.65
2022-08-17T09:28:04.822Z,23.57
2022-08-17T09:30:39.038Z,23.61
2022-08-17T09:33:09.211Z,23.58
2022-08-17T09:35:44.724Z,23.53
2022-08-17T09:38:22.504Z,23.57
2022-08-17T09:40:57.536Z,23.49
2022-08-17T09:43:35.098Z,23.46
2022-08-17T09:46:09.884Z,23.56
2022-08-17T09:48:42.865Z,23.55
2022-08-17T09:51:17.142Z,23.66
2022-08-17T09:53:45.353Z,23.59
2022-08-17T09:56:34.487Z,23.83
2022-08-17T09:59:28.507Z,24.78
2022-08-17T10:02:17.653Z,25.28
2022-08-17T10:04:56.363Z,25.39
2022-08-17T10:07:34.094Z,25.16
2022-08-17T10:10:13.559Z,24.85
2022-08-17T10:12:53.326Z,24.60
2022-08-17T10:15:37.560Z,24.88
2022-08-17T10:18:18.525Z,24.87
2022-08-17T10:21:15.768Z,24.99
2022-08-17T10:24:05.176Z,25.37
2022-08-17T10:26:55.784Z,25.98
2022-08-17T10:29:29.485Z,26.10
2022-08-17T10:32:10.685Z,26.66
2022-08-17T10:34:59.447Z,28.25
2022-08-17T10:37:43.803Z,29.05
2022-08-17T10:40:24.615Z,28.51
2022-08-17T10:43:00.268Z,29.31
2022-08-17T10:45:35.690Z,29.63
2022-08-17T10:48:28.479Z,30.37
2022-08-17T10:51:07.386Z,30.37
2022-08-17T10:54:01.633Z,29.25
2022-08-17T10:56:50.346Z,29.21
2022-08-17T10:59:51.421Z,29.18
2022-08-17T11:02:26.102Z,29.01
2022-08-17T11:05:20.464Z,28.47
2022-08-17T11:08:05.333Z,27.68
2022-08-17T11:11:07.698Z,27.60
2022-08-17T11:13:45.810Z,27.87
2022-08-17T11:16:34.122Z,27.51
2022-08-17T11:19:36.572Z,27.37
2022-08-17T11:22:23.232Z,27.86
2022-08-17T11:24:54.669Z,28.18
2022-08-17T11:27:28.129Z,27.31
2022-08-17T11:30:02.124Z,27.82
2022-08-17T11:32:37.975Z,27.94
2022-08-17T11:35:39.936Z,27.40
2022-08-17T11:38:18.869Z,27.64
2022-08-17T11:41:09.390Z,28.19
2022-08-17T11:44:15.293Z,29.02
2022-08-17T11:47:16.454Z,29.56
2022-08-17T11:50:18.827Z,29.51
2022-08-17T11:52:49.871Z,29.43
2022-08-17T11:55:51.077Z,30.12
2022-08-17T11:58:41.417Z,30.91
2022-08-17T12:01:13.447Z,30.93
2022-08-17T12:03:54.152Z,30.46
2022-08-17T12:06:44.913Z,30.48
2022-08-17T12:09:18.278Z,30.56
2022-08-17T12:12:01.687Z,31.32
2022-08-17T12:15:08.032Z,32.03
2022-08-17T12:17:41.389Z,32.42
2022-08-17T12:20:17.645Z,32.32
2022-08-17T12:22:54.722Z,32.30
2022-08-17T12:25:31.392Z,31.03
2022-08-17T12:28:05.286Z,30.99
2022-08-17T12:30:35.385Z,31.41
2022-08-17T12:33:03.286Z,32.10
2022-08-17T12:35:35.457Z,31.89
2022-08-17T12:38:06.411Z,31.61
2022-08-17T12:40:58.153Z,32.02
2022-08-17T12:43:30.432Z,32.15
2022-08-17T12:46:01.076Z,32.15
2022-08-17T12:48:58.932Z,32.59
2022-08-17T12:51:30.010Z,32.65
2022-08-17T12:53:58.005Z,30.77
2022-08-17T12:56:25.889Z,31.74
2022-08-17T12:58:55.561Z,31.96
2022-08-17T13:01:25.249Z,31.90
2022-08-17T13:03:57.135Z,31.10
2022-08-17T13:06:32.607Z,31.50
2022-08-17T13:09:11.309Z,31.92
2022-08-17T13:11:48.581Z,31.46
2022-08-17T13:14:18.367Z,31.40
2022-08-17T13:16:52.756Z,31.73
2022-08-17T13:19:39.746Z,31.32
2022-08-17T13:22:12.389Z,32.07
2022-08-17T13:24:52.886Z,32.15
2022-08-17T13:27:22.829Z,31.37
2022-08-17T13:29:53.914Z,31.13
2022-08-17T13:32:24.054Z,30.29
2022-08-17T13:35:13.796Z,30.85
2022-08-17T13:38:02.209Z,31.18
2022-08-17T13:40:36.562Z,30.77
2022-08-17T13:43:05.445Z,30.06
2022-08-17T13:45:53.314Z,30.18
2022-08-17T13:48:25.705Z,30.23
2022-08-17T13:51:29.720Z,30.14
2022-08-17T13:54:06.559Z,30.07
2022-08-17T13:56:51.970Z,30.35
2022-08-17T13:59:48.171Z,30.06
2022-08-17T14:02:20.368Z,29.59
2022-08-17T14:04:50.259Z,29.79
2022-08-17T14:07:28.999Z,29.26
2022-08-17T14:10:00.918Z,29.66
2022-08-17T14:12:32.011Z,29.73
2022-08-17T14:15:00.854Z,29.65
2022-08-17T14:17:36.308Z,29.16
2022-08-17T14:20:07.589Z,29.02
2022-08-17T14:22:38.550Z,29.24
2022-08-17T14:25:10.597Z,28.86
2022-08-17T14:27:43.580Z,28.39
2022-08-17T14:30:23.056Z,28.24
2022-08-17T14:32:51.903Z,28.32
2022-08-17T14:35:23.020Z,27.91
2022-08-17T14:37:51.427Z,28.03
2022-08-17T14:40:22.574Z,27.76
2022-08-17T14:42:50.833Z,27.59
2022-08-17T14:45:31.723Z,27.88
2022-08-17T14:48:03.896Z,27.61
2022-08-17T14:50:32.118Z,27.23
2022-08-17T14:53:04.313Z,27.87
2022-08-17T14:55:33.749Z,28.17
2022-08-17T14:58:01.921Z,27.96
2022-08-17T15:00:29.782Z,27.86
2022-08-17T15:03:00.013Z,27.63
2022-08-17T15:05:30.493Z,27.70
2022-08-17T15:07:58.648Z,27.94
2022-08-17T15:10:26.524Z,27.78
2022-08-17T15:12:56.111Z,27.63
2022-08-17T15:15:24.376Z,27.73
2022-08-17T15:17:52.300Z,27.84
2022-08-17T15:20:22.763Z,27.93
2022-08-17T15:22:54.908Z,27.95
2022-08-17T15:25:23.226Z,27.94
2022-08-17T15:27:51.816Z,27.78
2022-08-17T15:30:22.077Z,27.66
2022-08-17T15:32:55.061Z,27.47
2022-08-17T15:35:26.882Z,27.68
2022-08-17T15:37:57.107Z,27.73
2022-08-17T15:40:25.094Z,27.85
2022-08-17T15:42:53.005Z,27.64
2022-08-17T15:45:26.599Z,27.75
2022-08-17T15:47:54.500Z,27.70
2022-08-17T15:50:22.596Z,27.55
2022-08-17T15:52:56.399Z,27.89
2022-08-17T15:55:24.967Z,27.96
2022-08-17T15:57:53.269Z,27.84
2022-08-17T16:00:24.059Z,27.91
2022-08-17T16:03:47.108Z,27.59
2022-08-17T16:05:40.758Z,27.54
2022-08-17T16:08:08.850Z,27.46
2022-08-17T16:10:37.165Z,27.61
2022-08-17T16:13:05.815Z,27.18
2022-08-17T16:15:56.648Z,27.52
2022-08-17T16:18:28.246Z,27.60
2022-08-17T16:20:56.400Z,27.40
2022-08-17T16:23:24.949Z,27.39
2022-08-17T16:25:54.443Z,27.27
2022-08-17T16:28:35.849Z,27.31
2022-08-17T16:31:08.203Z,27.23
2022-08-17T16:33:39.501Z,27.12
2022-08-17T16:36:09.047Z,27.05
2022-08-17T16:38:38.529Z,27.02
2022-08-17T16:41:07.754Z,26.91
2022-08-17T16:43:36.207Z,26.99
2022-08-17T16:46:04.241Z,27.04
2022-08-17T16:48:33.533Z,26.70
2022-08-17T16:51:04.116Z,26.85
2022-08-17T16:53:32.828Z,26.99
2022-08-17T16:56:01.296Z,27.07
2022-08-17T16:58:30.258Z,27.06
2022-08-17T17:00:59.598Z,27.07
2022-08-17T17:03:31.372Z,26.87
2022-08-17T17:06:13.581Z,26.71
2022-08-17T17:08:48.393Z,26.72
2022-08-17T17:11:34.045Z,26.55
2022-08-17T17:14:04.941Z,26.41
2022-08-17T17:16:41.075Z,26.53
2022-08-17T17:19:34.529Z,26.57
2022-08-17T17:22:15.253Z,26.68
2022-08-17T17:24:52.618Z,26.61
2022-08-17T17:27:31.783Z,26.66
2022-08-17T17:30:08.556Z,26.62
2022-08-17T17:32:42.188Z,26.45
2022-08-17T17:35:16.357Z,26.48
2022-08-17T17:37:47.196Z,26.38
2022-08-17T17:40:20.363Z,26.28
2022-08-17T17:42:50.139Z,26.29
2022-08-17T17:45:23.416Z,26.29
2022-08-17T17:47:51.798Z,26.27
2022-08-17T17:50:25.804Z,25.96
2022-08-17T17:53:03.117Z,25.95
2022-08-17T17:55:40.588Z,25.79
2022-08-17T17:58:25.411Z,25.75
2022-08-17T18:01:08.151Z,25.75
2022-08-17T18:03:50.571Z,25.61
2022-08-17T18:06:31.115Z,25.64
2022-08-17T18:09:10.234Z,25.52
2022-08-17T18:11:58.985Z,25.39
2022-08-17T18:14:42.992Z,25.40
2022-08-17T18:17:11.098Z,25.45
2022-08-17T18:19:39.938Z,25.30
2022-08-17T18:22:13.096Z,25.26
2022-08-17T18:24:47.035Z,25.31
2022-08-17T18:27:32.188Z,25.09
2022-08-17T18:30:04.596Z,25.09
2022-08-17T18:32:39.921Z,25.00
2022-08-17T18:35:28.622Z,24.95
2022-08-17T18:37:58.834Z,24.94
2022-08-17T18:40:33.167Z,24.93
2022-08-17T18:43:11.952Z,24.91
2022-08-17T18:45:45.622Z,24.89
2022-08-17T18:48:27.453Z,24.86
2022-08-17T18:50:58.549Z,24.87
2022-08-17T18:53:34.295Z,24.72
2022-08-17T18:56:35.040Z,24.66
2022-08-17T18:59:21.885Z,24.59
2022-08-17T19:02:09.968Z,24.33
2022-08-17T19:04:43.775Z,24.26
2022-08-17T19:07:27.846Z,24.23
2022-08-17T19:10:01.862Z,24.12
2022-08-17T19:12:38.111Z,24.10
2022-08-17T19:15:09.416Z,24.10
2022-08-17T19:17:45.615Z,24.17
2022-08-17T19:20:19.697Z,24.13
2022-08-17T19:23:01.425Z,24.09
2022-08-17T19:25:32.888Z,24.01
2022-08-17T19:28:21.708Z,23.97
2022-08-17T19:30:55.660Z,23.89
2022-08-17T19:33:24.061Z,23.87
2022-08-17T19:36:02.489Z,23.95
2022-08-17T19:38:43.168Z,23.79
2022-08-17T19:41:20.781Z,23.85
2022-08-17T19:44:13.076Z,23.80
2022-08-17T19:46:48.528Z,23.72
2022-08-17T19:49:32.908Z,23.71
2022-08-17T19:52:07.609Z,23.66
2022-08-17T19:54:42.084Z,23.61
2022-08-17T19:57:19.216Z,23.60
2022-08-17T19:59:54.609Z,23.46
2022-08-17T20:02:34.616Z,23.44
2022-08-17T20:05:06.413Z,23.37
2022-08-17T20:07:44.604Z,23.35
2022-08-17T20:10:19.107Z,23.36
2022-08-17T20:12:50.722Z,23.34
2022-08-17T20:15:26.188Z,23.25
2022-08-17T20:17:54.793Z,23.12
2022-08-17T20:20:31.865Z,23.08
2022-08-17T20:23:06.795Z,22.98
2022-08-17T20:25:39.264Z,22.91
2022-08-17T20:28:19.047Z,22.82
2022-08-17T20:30:52.319Z,22.80
2022-08-17T20:33:26.401Z,22.77
2022-08-17T20:36:04.438Z,22.77
2022-08-17T20:38:42.499Z,22.76
2022-08-17T20:41:16.546Z,22.78
2022-08-17T20:43:51.340Z,22.76
2022-08-17T20:46:31.306Z,22.78
2022-08-17T20:49:16.999Z,22.78
2022-08-17T20:52:01.317Z,22.75
2022-08-17T20:54:44.711Z,22.64
2022-08-17T20:57:48.488Z,22.48
2022-08-17T21:00:45.858Z,22.33
2022-08-17T21:03:50.200Z,22.22
2022-08-17T21:06:25.968Z,22.19
2022-08-17T21:08:58.819Z,22.22
2022-08-17T21:12:04.083Z,22.05
2022-08-17T21:14:41.865Z,21.96
2022-08-17T21:17:29.462Z,21.84
2022-08-17T21:20:11.358Z,21.77
2022-08-17T21:22:53.720Z,21.79
2022-08-17T21:25:37.094Z,21.79
2022-08-17T21:28:13.273Z,21.88
2022-08-17T21:30:53.632Z,21.87
2022-08-17T21:33:26.772Z,21.88
2022-08-17T21:36:11.130Z,21.82
2022-08-17T21:38:44.974Z,21.82
2022-08-17T21:41:22.050Z,21.72
2022-08-17T21:43:52.555Z,21.70
2022-08-17T21:46:28.722Z,21.66
2022-08-17T21:49:07.255Z,21.61
2022-08-17T21:51:46.495Z,21.51
2022-08-17T21:54:30.834Z,21.39
2022-08-17T21:57:00.613Z,21.44
2022-08-17T21:59:31.721Z,21.50
2022-08-17T22:02:01.703Z,21.37
2022-08-17T22:04:32.617Z,21.36
2022-08-17T22:07:02.450Z,21.24
2022-08-17T22:09:35.642Z,21.29
2022-08-17T22:12:09.012Z,21.14
2022-08-17T22:14:52.798Z,20.99
2022-08-17T22:17:25.386Z,20.96
2022-08-17T22:19:56.786Z,20.87
2022-08-17T22:22:29.715Z,20.84
2022-08-17T22:25:00.685Z,20.95
2022-08-17T22:27:50.357Z,21.02
2022-08-17T22:30:27.659Z,20.89
2022-08-17T22:32:56.180Z,20.89
2022-08-17T22:35:43.105Z,20.99
2022-08-17T22:38:32.886Z,20.96
2022-08-17T22:41:31.985Z,20.93
2022-08-17T22:44:07.387Z,20.88
2022-08-17T22:46:38.477Z,20.83
2022-08-17T22:49:06.887Z,20.78
2022-08-17T22:51:34.896Z,20.76
2022-08-17T22:54:31.452Z,20.72
2022-08-17T22:57:21.616Z,20.68
2022-08-17T22:59:51.589Z,20.70
2022-08-17T23:02:26.432Z,20.66
2022-08-17T23:04:59.044Z,20.57
2022-08-17T23:07:26.828Z,20.52
2022-08-17T23:09:55.342Z,20.45
2022-08-17T23:12:27.564Z,20.38
2022-08-17T23:15:01.572Z,20.39
2022-08-17T23:17:37.072Z,20.42
2022-08-17T23:20:08.429Z,20.36
2022-08-17T23:22:38.301Z,20.31
2022-08-17T23:25:26.357Z,20.34
2022-08-17T23:27:55.741Z,20.36
2022-08-17T23:30:25.282Z,20.34
2022-08-17T23:32:54.207Z,20.38
2022-08-17T23:35:40.388Z,20.38
2022-08-17T23:38:09.802Z,20.31
2022-08-17T23:40:39.395Z,20.28
2022-08-17T23:43:24.021Z,20.24
2022-08-17T23:45:53.937Z,20.20
2022-08-17T23:48:36.010Z,20.13
2022-08-17T23:51:09.452Z,20.10
2022-08-17T23:53:41.774Z,20.14
2022-08-17T23:56:11.349Z,20.05
2022-08-17T23:58:42.983Z,19.94
